sensor_id;sensor_type;location;lat;lon;timestamp;P1;durP1;ratioP1;P2;durP2;ratioP2
59766;SDS011;46248;58.364;25.582;2023-08-08T00:00:03;2.50;;;2.30;;
59766;SDS011;46248;58.364;25.582;2023-08-08T00:03:25;4.15;;;2.75;;
59766;SDS011;46248;58.364;25.582;2023-08-08T00:06:47;3.83;;;3.10;;
59766;SDS011;46248;58.364;25.582;2023-08-08T00:10:09;4.60;;;2.85;;
59766;SDS011;46248;58.364;25.582;2023-08-08T00:13:32;3.22;;;2.92;;
59766;SDS011;46248;58.364;25.582;2023-08-08T00:16:53;2.97;;;2.67;;
59766;SDS011;46248;58.364;25.582;2023-08-08T00:20:15;5.35;;;3.25;;
59766;SDS011;46248;58.364;25.582;2023-08-08T00:23:37;5.55;;;3.40;;
59766;SDS011;46248;58.364;25.582;2023-08-08T00:26:58;7.18;;;3.65;;
59766;SDS011;46248;58.364;25.582;2023-08-08T00:30:21;3.13;;;2.83;;
59766;SDS011;46248;58.364;25.582;2023-08-08T00:33:43;3.90;;;3.38;;
59766;SDS011;46248;58.364;25.582;2023-08-08T00:37:05;5.10;;;3.00;;
59766;SDS011;46248;58.364;25.582;2023-08-08T00:40:27;3.38;;;3.08;;
59766;SDS011;46248;58.364;25.582;2023-08-08T00:43:48;4.53;;;3.28;;
59766;SDS011;46248;58.364;25.582;2023-08-08T00:47:12;5.13;;;3.53;;
59766;SDS011;46248;58.364;25.582;2023-08-08T00:50:33;3.28;;;2.97;;
59766;SDS011;46248;58.364;25.582;2023-08-08T00:53:56;4.65;;;4.07;;
59766;SDS011;46248;58.364;25.582;2023-08-08T00:57:18;5.22;;;3.58;;
59766;SDS011;46248;58.364;25.582;2023-08-08T01:00:40;5.18;;;3.70;;
59766;SDS011;46248;58.364;25.582;2023-08-08T01:04:04;3.95;;;3.53;;
59766;SDS011;46248;58.364;25.582;2023-08-08T01:07:29;3.85;;;3.35;;
59766;SDS011;46248;58.364;25.582;2023-08-08T01:10:54;4.60;;;3.78;;
59766;SDS011;46248;58.364;25.582;2023-08-08T01:14:15;6.10;;;3.92;;
59766;SDS011;46248;58.364;25.582;2023-08-08T01:17:38;3.92;;;3.58;;
59766;SDS011;46248;58.364;25.582;2023-08-08T01:21:04;5.53;;;3.38;;
59766;SDS011;46248;58.364;25.582;2023-08-08T01:24:28;4.57;;;3.45;;
59766;SDS011;46248;58.364;25.582;2023-08-08T01:27:53;5.78;;;3.55;;
59766;SDS011;46248;58.364;25.582;2023-08-08T01:31:15;4.85;;;3.60;;
59766;SDS011;46248;58.364;25.582;2023-08-08T01:34:37;8.50;;;3.60;;
59766;SDS011;46248;58.364;25.582;2023-08-08T01:38:00;6.70;;;3.30;;
59766;SDS011;46248;58.364;25.582;2023-08-08T01:41:31;5.80;;;3.40;;
59766;SDS011;46248;58.364;25.582;2023-08-08T01:44:54;4.10;;;3.70;;
59766;SDS011;46248;58.364;25.582;2023-08-08T01:48:17;5.70;;;3.92;;
59766;SDS011;46248;58.364;25.582;2023-08-08T01:51:39;5.80;;;3.30;;
59766;SDS011;46248;58.364;25.582;2023-08-08T01:55:01;5.05;;;3.38;;
59766;SDS011;46248;58.364;25.582;2023-08-08T01:58:26;4.25;;;3.50;;
59766;SDS011;46248;58.364;25.582;2023-08-08T02:01:47;4.35;;;3.58;;
59766;SDS011;46248;58.364;25.582;2023-08-08T02:05:09;5.57;;;4.10;;
59766;SDS011;46248;58.364;25.582;2023-08-08T02:08:31;3.72;;;3.05;;
59766;SDS011;46248;58.364;25.582;2023-08-08T02:11:53;5.65;;;3.55;;
59766;SDS011;46248;58.364;25.582;2023-08-08T02:15:16;6.70;;;3.78;;
59766;SDS011;46248;58.364;25.582;2023-08-08T02:18:38;4.32;;;2.85;;
59766;SDS011;46248;58.364;25.582;2023-08-08T02:22:01;3.47;;;3.10;;
59766;SDS011;46248;58.364;25.582;2023-08-08T02:25:23;3.45;;;3.10;;
59766;SDS011;46248;58.364;25.582;2023-08-08T02:28:44;4.68;;;3.58;;
59766;SDS011;46248;58.364;25.582;2023-08-08T02:32:08;7.18;;;3.53;;
59766;SDS011;46248;58.364;25.582;2023-08-08T02:35:30;4.35;;;3.15;;
59766;SDS011;46248;58.364;25.582;2023-08-08T02:38:52;5.38;;;3.13;;
59766;SDS011;46248;58.364;25.582;2023-08-08T02:42:14;5.25;;;3.10;;
59766;SDS011;46248;58.364;25.582;2023-08-08T02:45:36;3.85;;;2.90;;
59766;SDS011;46248;58.364;25.582;2023-08-08T02:48:59;4.40;;;3.40;;
59766;SDS011;46248;58.364;25.582;2023-08-08T02:52:21;3.28;;;2.58;;
59766;SDS011;46248;58.364;25.582;2023-08-08T02:55:43;4.13;;;2.50;;
59766;SDS011;46248;58.364;25.582;2023-08-08T02:59:04;2.30;;;2.10;;
59766;SDS011;46248;58.364;25.582;2023-08-08T03:02:26;4.65;;;2.17;;
59766;SDS011;46248;58.364;25.582;2023-08-08T03:05:49;4.85;;;1.90;;
59766;SDS011;46248;58.364;25.582;2023-08-08T03:09:11;2.95;;;1.40;;
59766;SDS011;46248;58.364;25.582;2023-08-08T03:12:33;0.80;;;0.60;;
59766;SDS011;46248;58.364;25.582;2023-08-08T03:15:55;1.13;;;0.60;;
59766;SDS011;46248;58.364;25.582;2023-08-08T03:19:17;0.30;;;0.30;;
59766;SDS011;46248;58.364;25.582;2023-08-08T03:22:40;0.20;;;0.20;;
59766;SDS011;46248;58.364;25.582;2023-08-08T03:26:02;0.28;;;0.20;;
59766;SDS011;46248;58.364;25.582;2023-08-08T03:29:24;0.55;;;0.00;;
59766;SDS011;46248;58.364;25.582;2023-08-08T03:32:45;0.20;;;0.20;;
59766;SDS011;46248;58.364;25.582;2023-08-08T03:36:07;0.40;;;0.22;;
59766;SDS011;46248;58.364;25.582;2023-08-08T03:39:30;0.10;;;0.10;;
59766;SDS011;46248;58.364;25.582;2023-08-08T03:42:52;0.08;;;0.08;;
59766;SDS011;46248;58.364;25.582;2023-08-08T03:46:13;0.22;;;0.17;;
59766;SDS011;46248;58.364;25.582;2023-08-08T03:49:35;1.05;;;0.10;;
59766;SDS011;46248;58.364;25.582;2023-08-08T03:52:57;0.32;;;0.20;;
59766;SDS011;46248;58.364;25.582;2023-08-08T03:56:20;0.20;;;0.20;;
59766;SDS011;46248;58.364;25.582;2023-08-08T03:59:41;0.25;;;0.22;;
59766;SDS011;46248;58.364;25.582;2023-08-08T04:03:04;0.80;;;0.10;;
59766;SDS011;46248;58.364;25.582;2023-08-08T04:06:26;0.00;;;0.00;;
59766;SDS011;46248;58.364;25.582;2023-08-08T04:09:47;0.17;;;0.17;;
59766;SDS011;46248;58.364;25.582;2023-08-08T04:13:10;0.32;;;0.10;;
59766;SDS011;46248;58.364;25.582;2023-08-08T04:16:32;1.55;;;0.10;;
59766;SDS011;46248;58.364;25.582;2023-08-08T04:19:54;0.30;;;0.30;;
59766;SDS011;46248;58.364;25.582;2023-08-08T04:23:15;0.85;;;0.77;;
59766;SDS011;46248;58.364;25.582;2023-08-08T04:26:36;0.73;;;0.63;;
59766;SDS011;46248;58.364;25.582;2023-08-08T04:30:00;0.20;;;0.20;;
59766;SDS011;46248;58.364;25.582;2023-08-08T04:33:23;0.57;;;0.30;;
59766;SDS011;46248;58.364;25.582;2023-08-08T04:36:44;0.20;;;0.20;;
59766;SDS011;46248;58.364;25.582;2023-08-08T04:40:07;0.13;;;0.10;;
59766;SDS011;46248;58.364;25.582;2023-08-08T04:43:29;0.30;;;0.30;;
59766;SDS011;46248;58.364;25.582;2023-08-08T04:46:52;1.42;;;0.22;;
59766;SDS011;46248;58.364;25.582;2023-08-08T04:50:14;0.20;;;0.20;;
59766;SDS011;46248;58.364;25.582;2023-08-08T04:53:36;0.25;;;0.13;;
59766;SDS011;46248;58.364;25.582;2023-08-08T04:56:58;0.43;;;0.20;;
59766;SDS011;46248;58.364;25.582;2023-08-08T05:00:19;0.15;;;0.10;;
59766;SDS011;46248;58.364;25.582;2023-08-08T05:03:43;0.30;;;0.20;;
59766;SDS011;46248;58.364;25.582;2023-08-08T05:07:05;0.35;;;0.20;;
59766;SDS011;46248;58.364;25.582;2023-08-08T05:10:27;0.20;;;0.20;;
59766;SDS011;46248;58.364;25.582;2023-08-08T05:13:49;0.40;;;0.30;;
59766;SDS011;46248;58.364;25.582;2023-08-08T05:17:11;0.40;;;0.10;;
59766;SDS011;46248;58.364;25.582;2023-08-08T05:20:34;0.10;;;0.10;;
59766;SDS011;46248;58.364;25.582;2023-08-08T05:23:55;0.45;;;0.10;;
59766;SDS011;46248;58.364;25.582;2023-08-08T05:27:18;0.17;;;0.10;;
59766;SDS011;46248;58.364;25.582;2023-08-08T05:30:39;0.60;;;0.13;;
59766;SDS011;46248;58.364;25.582;2023-08-08T05:34:01;0.30;;;0.10;;
59766;SDS011;46248;58.364;25.582;2023-08-08T05:37:25;0.03;;;0.00;;
59766;SDS011;46248;58.364;25.582;2023-08-08T05:40:46;0.10;;;0.10;;
59766;SDS011;46248;58.364;25.582;2023-08-08T05:44:08;0.55;;;0.20;;
59766;SDS011;46248;58.364;25.582;2023-08-08T05:47:29;0.73;;;0.13;;
59766;SDS011;46248;58.364;25.582;2023-08-08T05:50:51;0.17;;;0.17;;
59766;SDS011;46248;58.364;25.582;2023-08-08T05:54:14;1.58;;;0.20;;
59766;SDS011;46248;58.364;25.582;2023-08-08T05:57:36;0.20;;;0.20;;
59766;SDS011;46248;58.364;25.582;2023-08-08T06:00:58;0.17;;;0.17;;
59766;SDS011;46248;58.364;25.582;2023-08-08T06:04:20;0.43;;;0.10;;
59766;SDS011;46248;58.364;25.582;2023-08-08T06:07:41;0.38;;;0.10;;
59766;SDS011;46248;58.364;25.582;2023-08-08T06:11:04;0.17;;;0.17;;
59766;SDS011;46248;58.364;25.582;2023-08-08T06:14:26;0.20;;;0.20;;
59766;SDS011;46248;58.364;25.582;2023-08-08T06:17:47;1.27;;;0.20;;
59766;SDS011;46248;58.364;25.582;2023-08-08T06:21:09;0.70;;;0.17;;
59766;SDS011;46248;58.364;25.582;2023-08-08T06:24:31;0.80;;;0.20;;
59766;SDS011;46248;58.364;25.582;2023-08-08T06:27:54;1.45;;;0.20;;
59766;SDS011;46248;58.364;25.582;2023-08-08T06:31:16;0.20;;;0.20;;
59766;SDS011;46248;58.364;25.582;2023-08-08T06:34:38;1.73;;;0.30;;
59766;SDS011;46248;58.364;25.582;2023-08-08T06:37:59;0.93;;;0.22;;
59766;SDS011;46248;58.364;25.582;2023-08-08T06:41:21;1.15;;;0.45;;
59766;SDS011;46248;58.364;25.582;2023-08-08T06:44:44;0.43;;;0.30;;
59766;SDS011;46248;58.364;25.582;2023-08-08T06:48:06;0.65;;;0.22;;
59766;SDS011;46248;58.364;25.582;2023-08-08T06:51:28;3.15;;;0.40;;
59766;SDS011;46248;58.364;25.582;2023-08-08T06:54:49;0.30;;;0.20;;
59766;SDS011;46248;58.364;25.582;2023-08-08T06:58:11;0.50;;;0.28;;
59766;SDS011;46248;58.364;25.582;2023-08-08T07:01:34;2.63;;;0.40;;
59766;SDS011;46248;58.364;25.582;2023-08-08T07:04:57;0.22;;;0.22;;
59766;SDS011;46248;58.364;25.582;2023-08-08T07:08:18;2.08;;;0.50;;
59766;SDS011;46248;58.364;25.582;2023-08-08T07:11:40;0.57;;;0.30;;
59766;SDS011;46248;58.364;25.582;2023-08-08T07:15:02;0.50;;;0.50;;
59766;SDS011;46248;58.364;25.582;2023-08-08T07:18:25;3.33;;;0.40;;
59766;SDS011;46248;58.364;25.582;2023-08-08T07:21:47;0.77;;;0.50;;
59766;SDS011;46248;58.364;25.582;2023-08-08T07:25:09;0.40;;;0.40;;
59766;SDS011;46248;58.364;25.582;2023-08-08T07:28:31;0.93;;;0.45;;
59766;SDS011;46248;58.364;25.582;2023-08-08T07:31:53;3.40;;;0.63;;
59766;SDS011;46248;58.364;25.582;2023-08-08T07:35:16;0.90;;;0.60;;
59766;SDS011;46248;58.364;25.582;2023-08-08T07:38:38;0.55;;;0.55;;
59766;SDS011;46248;58.364;25.582;2023-08-08T07:41:59;4.88;;;1.38;;
59766;SDS011;46248;58.364;25.582;2023-08-08T07:45:21;2.17;;;1.58;;
59766;SDS011;46248;58.364;25.582;2023-08-08T07:48:43;5.28;;;4.25;;
59766;SDS011;46248;58.364;25.582;2023-08-08T07:52:06;1.80;;;1.70;;
59766;SDS011;46248;58.364;25.582;2023-08-08T07:55:28;3.15;;;1.80;;
59766;SDS011;46248;58.364;25.582;2023-08-08T07:58:50;1.10;;;0.90;;
59766;SDS011;46248;58.364;25.582;2023-08-08T08:02:11;3.05;;;0.90;;
59766;SDS011;46248;58.364;25.582;2023-08-08T08:05:34;1.63;;;0.80;;
59766;SDS011;46248;58.364;25.582;2023-08-08T08:08:57;0.88;;;0.80;;
59766;SDS011;46248;58.364;25.582;2023-08-08T08:12:20;2.90;;;0.77;;
59766;SDS011;46248;58.364;25.582;2023-08-08T08:15:42;2.72;;;1.08;;
59766;SDS011;46248;58.364;25.582;2023-08-08T08:19:04;2.13;;;1.35;;
59766;SDS011;46248;58.364;25.582;2023-08-08T08:22:26;1.10;;;0.80;;
59766;SDS011;46248;58.364;25.582;2023-08-08T08:25:49;1.63;;;0.80;;
59766;SDS011;46248;58.364;25.582;2023-08-08T08:29:11;1.40;;;0.90;;
59766;SDS011;46248;58.364;25.582;2023-08-08T08:32:33;0.98;;;0.80;;
59766;SDS011;46248;58.364;25.582;2023-08-08T08:35:55;1.80;;;1.02;;
59766;SDS011;46248;58.364;25.582;2023-08-08T08:39:16;1.23;;;0.90;;
59766;SDS011;46248;58.364;25.582;2023-08-08T08:42:41;3.63;;;0.98;;
59766;SDS011;46248;58.364;25.582;2023-08-08T08:46:03;2.05;;;0.77;;
59766;SDS011;46248;58.364;25.582;2023-08-08T08:49:25;1.92;;;1.00;;
59766;SDS011;46248;58.364;25.582;2023-08-08T08:52:50;4.13;;;1.38;;
59766;SDS011;46248;58.364;25.582;2023-08-08T08:56:13;2.33;;;0.90;;
59766;SDS011;46248;58.364;25.582;2023-08-08T08:59:38;1.05;;;0.75;;
59766;SDS011;46248;58.364;25.582;2023-08-08T09:02:59;2.72;;;0.90;;
59766;SDS011;46248;58.364;25.582;2023-08-08T09:06:22;1.17;;;0.80;;
59766;SDS011;46248;58.364;25.582;2023-08-08T09:09:44;1.73;;;1.08;;
59766;SDS011;46248;58.364;25.582;2023-08-08T09:13:06;2.25;;;1.00;;
59766;SDS011;46248;58.364;25.582;2023-08-08T09:16:30;1.08;;;0.85;;
59766;SDS011;46248;58.364;25.582;2023-08-08T09:19:53;2.80;;;1.10;;
59766;SDS011;46248;58.364;25.582;2023-08-08T09:23:15;2.05;;;1.00;;
59766;SDS011;46248;58.364;25.582;2023-08-08T09:26:38;1.38;;;0.80;;
59766;SDS011;46248;58.364;25.582;2023-08-08T09:30:00;2.42;;;0.88;;
59766;SDS011;46248;58.364;25.582;2023-08-08T09:33:27;2.03;;;1.25;;
59766;SDS011;46248;58.364;25.582;2023-08-08T09:36:50;1.27;;;1.10;;
59766;SDS011;46248;58.364;25.582;2023-08-08T09:40:12;2.40;;;0.73;;
59766;SDS011;46248;58.364;25.582;2023-08-08T09:43:34;2.45;;;1.02;;
59766;SDS011;46248;58.364;25.582;2023-08-08T09:46:56;4.25;;;0.90;;
59766;SDS011;46248;58.364;25.582;2023-08-08T09:50:19;1.35;;;0.95;;
59766;SDS011;46248;58.364;25.582;2023-08-08T09:53:41;2.70;;;1.00;;
59766;SDS011;46248;58.364;25.582;2023-08-08T09:57:04;2.40;;;1.00;;
59766;SDS011;46248;58.364;25.582;2023-08-08T10:00:27;2.22;;;1.00;;
59766;SDS011;46248;58.364;25.582;2023-08-08T10:03:51;1.42;;;1.10;;
59766;SDS011;46248;58.364;25.582;2023-08-08T10:07:14;1.35;;;0.90;;
59766;SDS011;46248;58.364;25.582;2023-08-08T10:10:36;1.30;;;0.77;;
59766;SDS011;46248;58.364;25.582;2023-08-08T10:14:00;2.40;;;1.00;;
59766;SDS011;46248;58.364;25.582;2023-08-08T10:17:24;4.80;;;1.00;;
59766;SDS011;46248;58.364;25.582;2023-08-08T10:20:46;4.78;;;1.25;;
59766;SDS011;46248;58.364;25.582;2023-08-08T10:24:10;2.67;;;0.90;;
59766;SDS011;46248;58.364;25.582;2023-08-08T10:27:34;1.95;;;0.77;;
59766;SDS011;46248;58.364;25.582;2023-08-08T10:30:57;3.05;;;0.95;;
59766;SDS011;46248;58.364;25.582;2023-08-08T10:34:24;2.15;;;0.90;;
59766;SDS011;46248;58.364;25.582;2023-08-08T10:37:57;4.30;;;1.20;;
59766;SDS011;46248;58.364;25.582;2023-08-08T10:41:20;2.13;;;0.88;;
59766;SDS011;46248;58.364;25.582;2023-08-08T10:44:42;3.75;;;1.23;;
59766;SDS011;46248;58.364;25.582;2023-08-08T10:48:07;3.45;;;1.33;;
59766;SDS011;46248;58.364;25.582;2023-08-08T10:51:33;4.13;;;0.90;;
59766;SDS011;46248;58.364;25.582;2023-08-08T10:54:56;2.83;;;1.50;;
59766;SDS011;46248;58.364;25.582;2023-08-08T10:58:20;3.95;;;1.38;;
59766;SDS011;46248;58.364;25.582;2023-08-08T11:01:42;3.17;;;1.30;;
59766;SDS011;46248;58.364;25.582;2023-08-08T11:05:06;2.92;;;1.05;;
59766;SDS011;46248;58.364;25.582;2023-08-08T11:08:29;4.78;;;1.30;;
59766;SDS011;46248;58.364;25.582;2023-08-08T11:11:51;5.05;;;1.10;;
59766;SDS011;46248;58.364;25.582;2023-08-08T11:15:14;3.88;;;0.98;;
59766;SDS011;46248;58.364;25.582;2023-08-08T11:18:36;6.75;;;1.45;;
59766;SDS011;46248;58.364;25.582;2023-08-08T11:21:58;2.88;;;1.08;;
59766;SDS011;46248;58.364;25.582;2023-08-08T11:25:20;3.20;;;1.05;;
59766;SDS011;46248;58.364;25.582;2023-08-08T11:28:48;3.13;;;1.17;;
59766;SDS011;46248;58.364;25.582;2023-08-08T11:32:12;1.95;;;0.88;;
59766;SDS011;46248;58.364;25.582;2023-08-08T11:35:33;3.65;;;1.10;;
59766;SDS011;46248;58.364;25.582;2023-08-08T11:38:55;3.90;;;0.93;;
59766;SDS011;46248;58.364;25.582;2023-08-08T11:42:18;2.90;;;1.10;;
59766;SDS011;46248;58.364;25.582;2023-08-08T11:45:40;3.08;;;1.15;;
59766;SDS011;46248;58.364;25.582;2023-08-08T11:49:05;3.13;;;1.52;;
59766;SDS011;46248;58.364;25.582;2023-08-08T11:52:27;2.55;;;1.30;;
59766;SDS011;46248;58.364;25.582;2023-08-08T11:55:49;6.28;;;1.40;;
59766;SDS011;46248;58.364;25.582;2023-08-08T11:59:11;2.67;;;0.93;;
59766;SDS011;46248;58.364;25.582;2023-08-08T12:02:33;6.03;;;1.58;;
59766;SDS011;46248;58.364;25.582;2023-08-08T12:05:57;5.03;;;1.45;;
59766;SDS011;46248;58.364;25.582;2023-08-08T12:09:19;2.78;;;1.17;;
59766;SDS011;46248;58.364;25.582;2023-08-08T12:12:41;2.42;;;0.73;;
59766;SDS011;46248;58.364;25.582;2023-08-08T12:16:04;2.58;;;1.02;;
59766;SDS011;46248;58.364;25.582;2023-08-08T12:19:37;1.77;;;0.95;;
59766;SDS011;46248;58.364;25.582;2023-08-08T12:23:00;2.03;;;1.13;;
59766;SDS011;46248;58.364;25.582;2023-08-08T12:26:21;2.63;;;0.88;;
59766;SDS011;46248;58.364;25.582;2023-08-08T12:29:43;2.15;;;0.98;;
59766;SDS011;46248;58.364;25.582;2023-08-08T12:33:05;3.30;;;1.10;;
59766;SDS011;46248;58.364;25.582;2023-08-08T12:36:28;9.50;;;1.35;;
59766;SDS011;46248;58.364;25.582;2023-08-08T12:39:51;2.40;;;1.17;;
59766;SDS011;46248;58.364;25.582;2023-08-08T12:43:12;3.30;;;1.17;;
59766;SDS011;46248;58.364;25.582;2023-08-08T12:46:38;7.28;;;0.98;;
59766;SDS011;46248;58.364;25.582;2023-08-08T12:49:59;2.55;;;1.30;;
59766;SDS011;46248;58.364;25.582;2023-08-08T12:53:21;1.88;;;1.10;;
59766;SDS011;46248;58.364;25.582;2023-08-08T12:56:44;4.07;;;1.10;;
59766;SDS011;46248;58.364;25.582;2023-08-08T13:00:06;4.15;;;1.52;;
59766;SDS011;46248;58.364;25.582;2023-08-08T13:03:29;6.28;;;1.00;;
59766;SDS011;46248;58.364;25.582;2023-08-08T13:06:54;3.83;;;1.25;;
59766;SDS011;46248;58.364;25.582;2023-08-08T13:10:15;2.63;;;1.38;;
59766;SDS011;46248;58.364;25.582;2023-08-08T13:13:40;4.03;;;1.00;;
59766;SDS011;46248;58.364;25.582;2023-08-08T13:17:02;4.50;;;1.20;;
59766;SDS011;46248;58.364;25.582;2023-08-08T13:20:24;2.78;;;1.20;;
59766;SDS011;46248;58.364;25.582;2023-08-08T13:23:46;3.88;;;1.33;;
59766;SDS011;46248;58.364;25.582;2023-08-08T13:27:08;2.40;;;1.10;;
59766;SDS011;46248;58.364;25.582;2023-08-08T13:30:31;2.55;;;0.70;;
59766;SDS011;46248;58.364;25.582;2023-08-08T13:33:54;2.08;;;0.90;;
59766;SDS011;46248;58.364;25.582;2023-08-08T13:37:16;3.42;;;1.02;;
59766;SDS011;46248;58.364;25.582;2023-08-08T13:40:38;1.35;;;0.70;;
59766;SDS011;46248;58.364;25.582;2023-08-08T13:43:59;3.17;;;0.85;;
59766;SDS011;46248;58.364;25.582;2023-08-08T13:47:22;3.63;;;1.30;;
59766;SDS011;46248;58.364;25.582;2023-08-08T13:50:44;3.85;;;1.08;;
59766;SDS011;46248;58.364;25.582;2023-08-08T13:54:06;1.83;;;0.68;;
59766;SDS011;46248;58.364;25.582;2023-08-08T13:57:27;6.00;;;1.40;;
59766;SDS011;46248;58.364;25.582;2023-08-08T14:00:48;2.42;;;1.00;;
59766;SDS011;46248;58.364;25.582;2023-08-08T14:04:12;3.67;;;1.00;;
59766;SDS011;46248;58.364;25.582;2023-08-08T14:07:33;2.30;;;0.77;;
59766;SDS011;46248;58.364;25.582;2023-08-08T14:10:55;2.45;;;0.70;;
59766;SDS011;46248;58.364;25.582;2023-08-08T14:14:17;3.22;;;1.10;;
59766;SDS011;46248;58.364;25.582;2023-08-08T14:17:39;3.22;;;1.00;;
59766;SDS011;46248;58.364;25.582;2023-08-08T14:21:02;2.65;;;1.00;;
59766;SDS011;46248;58.364;25.582;2023-08-08T14:24:25;1.77;;;1.10;;
59766;SDS011;46248;58.364;25.582;2023-08-08T14:27:47;1.13;;;0.70;;
59766;SDS011;46248;58.364;25.582;2023-08-08T14:31:09;2.90;;;1.15;;
59766;SDS011;46248;58.364;25.582;2023-08-08T14:34:31;2.22;;;1.10;;
59766;SDS011;46248;58.364;25.582;2023-08-08T14:37:55;3.75;;;1.20;;
59766;SDS011;46248;58.364;25.582;2023-08-08T14:41:17;2.50;;;0.90;;
59766;SDS011;46248;58.364;25.582;2023-08-08T14:44:38;2.10;;;0.90;;
59766;SDS011;46248;58.364;25.582;2023-08-08T14:48:00;2.13;;;0.80;;
59766;SDS011;46248;58.364;25.582;2023-08-08T14:51:22;2.60;;;1.20;;
59766;SDS011;46248;58.364;25.582;2023-08-08T14:54:46;2.60;;;1.10;;
59766;SDS011;46248;58.364;25.582;2023-08-08T14:58:08;5.47;;;1.23;;
59766;SDS011;46248;58.364;25.582;2023-08-08T15:01:29;1.80;;;0.70;;
59766;SDS011;46248;58.364;25.582;2023-08-08T15:04:51;4.72;;;1.10;;
59766;SDS011;46248;58.364;25.582;2023-08-08T15:08:13;0.73;;;0.60;;
59766;SDS011;46248;58.364;25.582;2023-08-08T15:11:36;1.77;;;0.80;;
59766;SDS011;46248;58.364;25.582;2023-08-08T15:14:57;3.63;;;1.05;;
59766;SDS011;46248;58.364;25.582;2023-08-08T15:18:19;3.33;;;1.00;;
59766;SDS011;46248;58.364;25.582;2023-08-08T15:21:41;3.78;;;2.05;;
59766;SDS011;46248;58.364;25.582;2023-08-08T15:25:03;3.00;;;0.70;;
59766;SDS011;46248;58.364;25.582;2023-08-08T15:28:26;1.80;;;0.90;;
59766;SDS011;46248;58.364;25.582;2023-08-08T15:31:48;2.33;;;0.90;;
59766;SDS011;46248;58.364;25.582;2023-08-08T15:35:09;2.08;;;1.00;;
59766;SDS011;46248;58.364;25.582;2023-08-08T15:38:31;3.25;;;1.13;;
59766;SDS011;46248;58.364;25.582;2023-08-08T15:41:53;3.63;;;1.42;;
59766;SDS011;46248;58.364;25.582;2023-08-08T15:45:16;2.17;;;1.00;;
59766;SDS011;46248;58.364;25.582;2023-08-08T15:48:38;3.20;;;1.08;;
59766;SDS011;46248;58.364;25.582;2023-08-08T15:52:00;2.42;;;0.98;;
59766;SDS011;46248;58.364;25.582;2023-08-08T15:55:21;3.75;;;1.80;;
59766;SDS011;46248;58.364;25.582;2023-08-08T15:58:43;2.55;;;1.38;;
59766;SDS011;46248;58.364;25.582;2023-08-08T16:02:06;1.35;;;1.20;;
59766;SDS011;46248;58.364;25.582;2023-08-08T16:05:27;2.20;;;0.95;;
59766;SDS011;46248;58.364;25.582;2023-08-08T16:08:49;7.32;;;1.30;;
59766;SDS011;46248;58.364;25.582;2023-08-08T16:12:11;1.58;;;0.82;;
59766;SDS011;46248;58.364;25.582;2023-08-08T16:15:33;2.70;;;0.98;;
59766;SDS011;46248;58.364;25.582;2023-08-08T16:18:56;4.07;;;0.90;;
59766;SDS011;46248;58.364;25.582;2023-08-08T16:22:17;1.25;;;0.60;;
59766;SDS011;46248;58.364;25.582;2023-08-08T16:25:38;2.42;;;0.82;;
59766;SDS011;46248;58.364;25.582;2023-08-08T16:29:00;5.07;;;2.15;;
59766;SDS011;46248;58.364;25.582;2023-08-08T16:32:22;3.53;;;1.42;;
59766;SDS011;46248;58.364;25.582;2023-08-08T16:35:45;3.35;;;1.48;;
59766;SDS011;46248;58.364;25.582;2023-08-08T16:39:06;2.83;;;1.38;;
59766;SDS011;46248;58.364;25.582;2023-08-08T16:42:38;2.63;;;1.05;;
59766;SDS011;46248;58.364;25.582;2023-08-08T16:45:59;1.77;;;0.65;;
59766;SDS011;46248;58.364;25.582;2023-08-08T16:49:21;2.30;;;0.80;;
59766;SDS011;46248;58.364;25.582;2023-08-08T16:52:44;2.88;;;0.90;;
59766;SDS011;46248;58.364;25.582;2023-08-08T16:56:05;1.77;;;0.95;;
59766;SDS011;46248;58.364;25.582;2023-08-08T16:59:27;2.47;;;0.93;;
59766;SDS011;46248;58.364;25.582;2023-08-08T17:02:49;1.88;;;0.90;;
59766;SDS011;46248;58.364;25.582;2023-08-08T17:06:11;2.45;;;0.70;;
59766;SDS011;46248;58.364;25.582;2023-08-08T17:09:35;2.47;;;1.25;;
59766;SDS011;46248;58.364;25.582;2023-08-08T17:12:56;3.80;;;1.67;;
59766;SDS011;46248;58.364;25.582;2023-08-08T17:16:18;4.25;;;1.80;;
59766;SDS011;46248;58.364;25.582;2023-08-08T17:19:40;3.33;;;2.05;;
59766;SDS011;46248;58.364;25.582;2023-08-08T17:23:02;2.85;;;1.23;;
59766;SDS011;46248;58.364;25.582;2023-08-08T17:26:25;4.72;;;1.60;;
59766;SDS011;46248;58.364;25.582;2023-08-08T17:29:47;6.05;;;2.20;;
59766;SDS011;46248;58.364;25.582;2023-08-08T17:33:08;3.38;;;1.52;;
59766;SDS011;46248;58.364;25.582;2023-08-08T17:36:30;2.05;;;1.23;;
59766;SDS011;46248;58.364;25.582;2023-08-08T17:39:52;2.80;;;1.13;;
59766;SDS011;46248;58.364;25.582;2023-08-08T17:43:15;6.40;;;1.58;;
59766;SDS011;46248;58.364;25.582;2023-08-08T17:46:37;1.38;;;1.10;;
59766;SDS011;46248;58.364;25.582;2023-08-08T17:49:59;6.05;;;1.90;;
59766;SDS011;46248;58.364;25.582;2023-08-08T17:53:20;2.28;;;0.90;;
59766;SDS011;46248;58.364;25.582;2023-08-08T17:56:42;3.17;;;0.88;;
59766;SDS011;46248;58.364;25.582;2023-08-08T18:00:06;3.22;;;1.23;;
59766;SDS011;46248;58.364;25.582;2023-08-08T18:03:29;1.45;;;0.90;;
59766;SDS011;46248;58.364;25.582;2023-08-08T18:06:50;2.00;;;0.77;;
59766;SDS011;46248;58.364;25.582;2023-08-08T18:10:12;4.15;;;1.00;;
59766;SDS011;46248;58.364;25.582;2023-08-08T18:13:34;2.67;;;1.10;;
59766;SDS011;46248;58.364;25.582;2023-08-08T18:16:57;3.28;;;1.10;;
59766;SDS011;46248;58.364;25.582;2023-08-08T18:20:19;4.47;;;1.10;;
59766;SDS011;46248;58.364;25.582;2023-08-08T18:23:40;4.32;;;1.00;;
59766;SDS011;46248;58.364;25.582;2023-08-08T18:27:02;3.13;;;0.95;;
59766;SDS011;46248;58.364;25.582;2023-08-08T18:30:24;2.70;;;0.90;;
59766;SDS011;46248;58.364;25.582;2023-08-08T18:33:47;2.13;;;0.80;;
59766;SDS011;46248;58.364;25.582;2023-08-08T18:37:08;3.13;;;1.00;;
59766;SDS011;46248;58.364;25.582;2023-08-08T18:40:30;1.20;;;0.85;;
59766;SDS011;46248;58.364;25.582;2023-08-08T18:43:51;4.13;;;1.13;;
59766;SDS011;46248;58.364;25.582;2023-08-08T18:47:13;2.55;;;1.55;;
59766;SDS011;46248;58.364;25.582;2023-08-08T18:50:36;3.47;;;1.27;;
59766;SDS011;46248;58.364;25.582;2023-08-08T18:53:58;1.95;;;1.02;;
59766;SDS011;46248;58.364;25.582;2023-08-08T18:57:20;1.70;;;0.80;;
59766;SDS011;46248;58.364;25.582;2023-08-08T19:00:41;1.77;;;0.90;;
59766;SDS011;46248;58.364;25.582;2023-08-08T19:04:03;2.50;;;1.02;;
59766;SDS011;46248;58.364;25.582;2023-08-08T19:07:28;2.92;;;1.33;;
59766;SDS011;46248;58.364;25.582;2023-08-08T19:10:49;4.70;;;1.60;;
59766;SDS011;46248;58.364;25.582;2023-08-08T19:14:11;2.65;;;1.05;;
59766;SDS011;46248;58.364;25.582;2023-08-08T19:17:32;2.13;;;0.80;;
59766;SDS011;46248;58.364;25.582;2023-08-08T19:21:12;13.02;;;1.38;;
59766;SDS011;46248;58.364;25.582;2023-08-08T19:24:35;1.70;;;0.82;;
59766;SDS011;46248;58.364;25.582;2023-08-08T19:27:57;2.15;;;0.80;;
59766;SDS011;46248;58.364;25.582;2023-08-08T19:31:19;4.25;;;1.02;;
59766;SDS011;46248;58.364;25.582;2023-08-08T19:34:40;2.03;;;1.08;;
59766;SDS011;46248;58.364;25.582;2023-08-08T19:38:02;1.65;;;1.20;;
59766;SDS011;46248;58.364;25.582;2023-08-08T19:41:25;2.22;;;1.45;;
59766;SDS011;46248;58.364;25.582;2023-08-08T19:44:47;1.75;;;0.90;;
59766;SDS011;46248;58.364;25.582;2023-08-08T19:48:08;2.28;;;1.10;;
59766;SDS011;46248;58.364;25.582;2023-08-08T19:51:30;2.22;;;1.13;;
59766;SDS011;46248;58.364;25.582;2023-08-08T19:54:52;4.25;;;1.40;;
59766;SDS011;46248;58.364;25.582;2023-08-08T19:58:15;4.32;;;1.13;;